Time;durP1;ratioP1;P1;durP2;ratioP2;P2;SDS_P1;SDS_P2;PMS_P1;PMS_P2;Temp;Humidity;BMP_temperature;BMP_pressure;BME280_temperature;BME280_humidity;BME280_pressure;Samples;Min_cycle;Max_cycle;Signal;HPM_P1;HPM_P2
2022/12/01 00:01:56;;;;;;;;;;;;;;;;;;4989614;28;19918;-55
2022/12/01 00:04:22;;;;;;;;;;;;;;;;;;4987386;28;20009;-56
2022/12/01 00:06:47;;;;;;;;;;;;;;;;;;4990959;28;19921;-56
2022/12/01 00:11:56;;;;;;;;;;;;;;;;;;4990264;28;19972;-56
2022/12/01 00:14:21;;;;;;;;;;;;;;;;;;4989613;28;19921;-55
2022/12/01 00:16:47;;;;;;;;;;;;;;;;;;4990385;28;19941;-56
2022/12/01 00:19:12;;;;;;;;;;;;;;;;;;4991398;28;20051;-54
2022/12/01 00:21:37;;;;;;;;;;;;;;;;;;4985065;28;19918;-55
2022/12/01 00:24:03;;;;;;;;;;;;;;;;;;5003412;28;20406;-55
2022/12/01 00:26:28;;;;;;;;;;;;;;;;;;4990994;28;19956;-55
2022/12/01 00:28:55;;;;;;;;;;;;;;;;;;4991807;28;20376;-54
2022/12/01 00:31:20;;;;;;;;;;;;;;;;;;4988042;28;20008;-55
2022/12/01 00:33:45;;;;;;;;;;;;;;;;;;4988979;28;20014;-55
2022/12/01 00:36:10;;;;;;;;;;;;;;;;;;4990299;28;19921;-55
2022/12/01 00:38:36;;;;;;;;;;;;;;;;;;4989818;28;19917;-55
2022/12/01 00:41:01;;;;;;;;;;;;;;;;;;4989841;28;20302;-56
2022/12/01 00:43:27;;;;;;;;;;;;;;;;;;4985101;28;19918;-55
2022/12/01 00:45:52;;;;;;;;;;;;;;;;;;4989057;28;19971;-56
2022/12/01 00:48:17;;;;;;;;;;;;;;;;;;4986581;28;20335;-55
2022/12/01 00:50:43;;;;;;;;;;;;;;;;;;4988687;28;19967;-55
2022/12/01 00:53:08;;;;;;;;;;;;;;;;;;4985819;28;19928;-55
2022/12/01 00:55:34;;;;;;;;;;;;;;;;;;4982017;28;20372;-55
2022/12/01 00:57:59;;;;;;;;;;;;;;;;;;4985346;28;19924;-52
2022/12/01 01:00:25;;;;;;;;;;;;;;;;;;4988265;28;20418;-55
2022/12/01 01:02:50;;;;;;;;;;;;;;;;;;4987358;28;19924;-57
2022/12/01 01:05:15;;;;;;;;;;;;;;;;;;4987100;28;19934;-54
2022/12/01 01:07:41;;;;;;;;;;;;;;;;;;4988905;28;20021;-54
2022/12/01 01:10:06;;;;;;;;;;;;;;;;;;4985131;28;19918;-55
2022/12/01 01:12:31;;;;;;;;;;;;;;;;;;4990576;28;19922;-54
2022/12/01 01:14:57;;;;;;;;;;;;;;;;;;4986040;28;19918;-52
2022/12/01 01:17:22;;;;;;;;;;;;;;;;;;4988505;28;19918;-54
2022/12/01 01:19:47;;;;;;;;;;;;;;;;;;4987687;28;19917;-54
2022/12/01 01:22:12;;;;;;;;;;;;;;;;;;4983242;28;19917;-54
2022/12/01 01:24:38;;;;;;;;;;;;;;;;;;4988209;28;19949;-54
2022/12/01 01:27:04;;;;;;;;;;;;;;;;;;4987345;28;19926;-54
2022/12/01 01:29:30;;;;;;;;;;;;;;;;;;4989954;28;19987;-54
2022/12/01 01:31:55;;;;;;;;;;;;;;;;;;4985736;28;20376;-55
2022/12/01 01:34:20;;;;;;;;;;;;;;;;;;4989076;28;19918;-54
2022/12/01 01:36:46;;;;;;;;;;;;;;;;;;4987285;28;19918;-55
2022/12/01 01:39:11;;;;;;;;;;;;;;;;;;4988988;28;20016;-54
2022/12/01 01:41:36;;;;;;;;;;;;;;;;;;4981645;28;19917;-54
2022/12/01 01:44:02;;;;;;;;;;;;;;;;;;4986835;28;19921;-55
2022/12/01 01:46:29;;;;;;;;;;;;;;;;;;4994503;28;19922;-54
2022/12/01 01:48:59;;;;;;;;;;;;;;;;;;4986265;28;19926;-54
2022/12/01 01:51:44;;;;;;;;;;;;;;;;;;4987564;28;19929;-55
2022/12/01 01:54:16;;;;;;;;;;;;;;;;;;4983123;28;19925;-54
2022/12/01 01:56:45;;;;;;;;;;;;;;;;;;4982489;28;20427;-54
2022/12/01 01:59:11;;;;;;;;;;;;;;;;;;4985088;28;20298;-54
2022/12/01 02:01:37;;;;;;;;;;;;;;;;;;4985101;28;19929;-54
2022/12/01 02:04:02;;;;;;;;;;;;;;;;;;4984440;28;19921;-55
2022/12/01 02:06:27;;;;;;;;;;;;;;;;;;4977930;28;19922;-55
2022/12/01 02:08:53;;;;;;;;;;;;;;;;;;4987249;28;19926;-56
2022/12/01 02:11:18;;;;;;;;;;;;;;;;;;4986967;28;19917;-56
2022/12/01 02:13:53;;;;;;;;;;;;;;;;;;4985656;28;19928;-55
2022/12/01 02:16:25;;;;;;;;;;;;;;;;;;4986065;28;19944;-53
2022/12/01 02:18:51;;;;;;;;;;;;;;;;;;4987587;28;19918;-54
2022/12/01 02:21:16;;;;;;;;;;;;;;;;;;4980987;28;20430;-53
2022/12/01 02:23:41;;;;;;;;;;;;;;;;;;4989298;28;20370;-55
2022/12/01 02:26:30;;;;;;;;;;;;;;;;;;4987377;28;19926;-54
2022/12/01 02:28:55;;;;;;;;;;;;;;;;;;4986729;28;19922;-55
2022/12/01 02:31:22;;;;;;;;;;;;;;;;;;4988652;28;19940;-56
2022/12/01 02:33:53;;;;;;;;;;;;;;;;;;4980095;28;19922;-57
2022/12/01 02:36:41;;;;;;;;;;;;;;;;;;4987737;28;19918;-53
2022/12/01 02:39:12;;;;;;;;;;;;;;;;;;4986378;28;19914;-57
2022/12/01 02:41:39;;;;;;;;;;;;;;;;;;4982048;28;19973;-54
2022/12/01 02:44:10;;;;;;;;;;;;;;;;;;4985075;28;19928;-54
2022/12/01 02:46:56;;;;;;;;;;;;;;;;;;4984540;28;19922;-55
2022/12/01 02:49:26;;;;;;;;;;;;;;;;;;4981933;28;19926;-55
2022/12/01 02:51:52;;;;;;;;;;;;;;;;;;4982410;28;19918;-53
2022/12/01 02:54:19;;;;;;;;;;;;;;;;;;4985866;28;19972;-54
2022/12/01 02:56:44;;;;;;;;;;;;;;;;;;4987595;28;19921;-54
2022/12/01 02:59:10;;;;;;;;;;;;;;;;;;4987699;28;19988;-56
2022/12/01 03:01:40;;;;;;;;;;;;;;;;;;4982368;28;20005;-53
2022/12/01 03:04:23;;;;;;;;;;;;;;;;;;4981033;28;19928;-56
2022/12/01 03:06:55;;;;;;;;;;;;;;;;;;4984398;28;19922;-56
2022/12/01 03:09:32;;;;;;;;;;;;;;;;;;4996491;28;19965;-56
2022/12/01 03:12:15;;;;;;;;;;;;;;;;;;4988995;28;19924;-56
2022/12/01 03:14:45;;;;;;;;;;;;;;;;;;4983585;28;20005;-56
2022/12/01 03:17:15;;;;;;;;;;;;;;;;;;4981418;28;19998;-56
2022/12/01 03:19:42;;;;;;;;;;;;;;;;;;4990382;28;19914;-56
2022/12/01 03:22:11;;;;;;;;;;;;;;;;;;4989867;28;19917;-56
2022/12/01 03:24:37;;;;;;;;;;;;;;;;;;4987738;28;19914;-55
2022/12/01 03:27:03;;;;;;;;;;;;;;;;;;4987851;28;19941;-56
2022/12/01 03:29:38;;;;;;;;;;;;;;;;;;4993004;28;20362;-56
2022/12/01 03:32:22;;;;;;;;;;;;;;;;;;4991179;28;19914;-56
2022/12/01 03:34:48;;;;;;;;;;;;;;;;;;4989616;28;19933;-55
2022/12/01 03:37:17;;;;;;;;;;;;;;;;;;4989331;28;19922;-55
2022/12/01 03:39:43;;;;;;;;;;;;;;;;;;4990441;28;19921;-55
2022/12/01 03:42:17;;;;;;;;;;;;;;;;;;4991807;28;19918;-56
2022/12/01 03:44:51;;;;;;;;;;;;;;;;;;4985129;28;19918;-56
2022/12/01 03:47:19;;;;;;;;;;;;;;;;;;4989255;28;20415;-56
2022/12/01 03:49:45;;;;;;;;;;;;;;;;;;4987332;28;19922;-54
2022/12/01 03:52:22;;;;;;;;;;;;;;;;;;4985814;28;19918;-53
2022/12/01 03:54:57;;;;;;;;;;;;;;;;;;4984311;28;19925;-55
2022/12/01 03:57:25;;;;;;;;;;;;;;;;;;4989853;28;19917;-54
2022/12/01 03:59:50;;;;;;;;;;;;;;;;;;4985589;28;19926;-57
2022/12/01 04:02:16;;;;;;;;;;;;;;;;;;4984559;28;19918;-56
2022/12/01 04:04:41;;;;;;;;;;;;;;;;;;4984912;28;19922;-56
2022/12/01 04:07:06;;;;;;;;;;;;;;;;;;4988469;28;20297;-56
2022/12/01 04:09:32;;;;;;;;;;;;;;;;;;4988919;28;20004;-56
2022/12/01 04:14:41;;;;;;;;;;;;;;;;;;4986438;28;19925;-55
2022/12/01 04:17:06;;;;;;;;;;;;;;;;;;4987157;28;19922;-57
2022/12/01 04:19:31;;;;;;;;;;;;;;;;;;4987395;28;20050;-54
2022/12/01 04:21:57;;;;;;;;;;;;;;;;;;4987689;28;19918;-54
2022/12/01 04:24:22;;;;;;;;;;;;;;;;;;4991350;28;19995;-54
2022/12/01 04:26:47;;;;;;;;;;;;;;;;;;4991163;28;20319;-53
2022/12/01 04:29:13;;;;;;;;;;;;;;;;;;4992209;28;19972;-55
2022/12/01 04:31:38;;;;;;;;;;;;;;;;;;4988850;28;19945;-54
2022/12/01 04:34:04;;;;;;;;;;;;;;;;;;4991458;28;19996;-53
2022/12/01 04:36:30;;;;;;;;;;;;;;;;;;4988113;28;20475;-55
2022/12/01 04:38:55;;;;;;;;;;;;;;;;;;4992258;28;20016;-55
2022/12/01 04:41:21;;;;;;;;;;;;;;;;;;4985110;28;20009;-56
2022/12/01 04:43:46;;;;;;;;;;;;;;;;;;4986907;28;20300;-54
2022/12/01 04:46:13;;;;;;;;;;;;;;;;;;4988330;28;19918;-55
2022/12/01 04:48:38;;;;;;;;;;;;;;;;;;4988630;28;19914;-55
2022/12/01 04:51:04;;;;;;;;;;;;;;;;;;4989428;28;19936;-56
2022/12/01 04:53:30;;;;;;;;;;;;;;;;;;4986682;28;20386;-54
2022/12/01 04:55:55;;;;;;;;;;;;;;;;;;4987047;28;19949;-56
2022/12/01 04:58:20;;;;;;;;;;;;;;;;;;4987611;28;19940;-57
2022/12/01 05:00:46;;;;;;;;;;;;;;;;;;4988777;28;19928;-56
2022/12/01 05:03:11;;;;;;;;;;;;;;;;;;4983854;28;20323;-56
2022/12/01 05:05:36;;;;;;;;;;;;;;;;;;4982775;28;19965;-56
2022/12/01 05:08:01;;;;;;;;;;;;;;;;;;4987468;28;19921;-56
2022/12/01 05:10:27;;;;;;;;;;;;;;;;;;4985676;28;19926;-55
2022/12/01 05:12:53;;;;;;;;;;;;;;;;;;4986799;28;19917;-56
2022/12/01 05:15:19;;;;;;;;;;;;;;;;;;4987844;28;19918;-55
2022/12/01 05:17:44;;;;;;;;;;;;;;;;;;4991772;28;19925;-56
2022/12/01 05:22:59;;;;;;;;;;;;;;;;;;4992197;28;20430;-54
2022/12/01 05:25:25;;;;;;;;;;;;;;;;;;4986104;28;19922;-56
2022/12/01 05:27:50;;;;;;;;;;;;;;;;;;4988001;28;19917;-54
2022/12/01 05:30:15;;;;;;;;;;;;;;;;;;4987263;28;19918;-54
2022/12/01 05:32:41;;;;;;;;;;;;;;;;;;4991203;28;19988;-54
2022/12/01 05:35:06;;;;;;;;;;;;;;;;;;4989208;28;19925;-52
2022/12/01 05:37:33;;;;;;;;;;;;;;;;;;4990292;28;20430;-55
2022/12/01 05:39:59;;;;;;;;;;;;;;;;;;4991008;28;19950;-57
2022/12/01 05:42:24;;;;;;;;;;;;;;;;;;4986662;28;20359;-55
2022/12/01 05:44:49;;;;;;;;;;;;;;;;;;4986402;28;20406;-56
2022/12/01 05:47:14;;;;;;;;;;;;;;;;;;4987822;28;19964;-55
2022/12/01 05:49:40;;;;;;;;;;;;;;;;;;4990132;28;19918;-55
2022/12/01 05:52:05;;;;;;;;;;;;;;;;;;4986118;28;19918;-56
2022/12/01 05:54:30;;;;;;;;;;;;;;;;;;4988130;28;19921;-56
2022/12/01 05:56:55;;;;;;;;;;;;;;;;;;4990277;28;19917;-56
2022/12/01 05:59:21;;;;;;;;;;;;;;;;;;4986003;28;19917;-56
2022/12/01 06:01:46;;;;;;;;;;;;;;;;;;4989784;28;19926;-54
2022/12/01 06:04:11;;;;;;;;;;;;;;;;;;4985027;28;19957;-54
2022/12/01 06:06:36;;;;;;;;;;;;;;;;;;4971669;28;19922;-55
2022/12/01 06:09:02;;;;;;;;;;;;;;;;;;4984300;28;19918;-56
2022/12/01 06:11:27;;;;;;;;;;;;;;;;;;4990375;28;20406;-55
2022/12/01 06:13:52;;;;;;;;;;;;;;;;;;4985323;28;20383;-55
2022/12/01 06:16:17;;;;;;;;;;;;;;;;;;4982913;28;19918;-56
2022/12/01 06:18:43;;;;;;;;;;;;;;;;;;4983275;28;19980;-56
2022/12/01 06:21:08;;;;;;;;;;;;;;;;;;4989988;28;19918;-56
2022/12/01 06:23:33;;;;;;;;;;;;;;;;;;4985505;28;19922;-56
2022/12/01 06:25:59;;;;;;;;;;;;;;;;;;4981687;28;20012;-55
2022/12/01 06:28:24;;;;;;;;;;;;;;;;;;4979094;28;20036;-55
2022/12/01 06:30:49;;;;;;;;;;;;;;;;;;4979765;28;20008;-56
2022/12/01 06:33:15;;;;;;;;;;;;;;;;;;4976951;28;19918;-56
2022/12/01 06:35:40;;;;;;;;;;;;;;;;;;4981935;28;20647;-56
2022/12/01 06:38:05;;;;;;;;;;;;;;;;;;4985895;28;20399;-55
2022/12/01 06:40:30;;;;;;;;;;;;;;;;;;4985247;28;20008;-56
2022/12/01 06:43:00;;;;;;;;;;;;;;;;;;4983025;28;19918;-56
2022/12/01 06:45:25;;;;;;;;;;;;;;;;;;4982324;28;19981;-55
2022/12/01 06:47:54;;;;;;;;;;;;;;;;;;4980499;28;20332;-56
2022/12/01 06:50:19;;;;;;;;;;;;;;;;;;4981966;28;19926;-56
2022/12/01 06:52:44;;;;;;;;;;;;;;;;;;4975381;28;19992;-56
2022/12/01 06:55:10;;;;;;;;;;;;;;;;;;4981829;28;19921;-57
2022/12/01 06:57:35;;;;;;;;;;;;;;;;;;4982630;28;19972;-57
2022/12/01 07:00:00;;;;;;;;;;;;;;;;;;4979051;28;19922;-57
2022/12/01 07:02:26;;;;;;;;;;;;;;;;;;4981095;28;20269;-57
2022/12/01 07:04:51;;;;;;;;;;;;;;;;;;4980618;28;20331;-56
2022/12/01 07:07:16;;;;;;;;;;;;;;;;;;4981769;28;19922;-57
2022/12/01 07:09:41;;;;;;;;;;;;;;;;;;4984904;28;19925;-56
2022/12/01 07:12:07;;;;;;;;;;;;;;;;;;4988183;28;19944;-56
2022/12/01 07:14:32;;;;;;;;;;;;;;;;;;4987360;28;19918;-56
2022/12/01 07:16:57;;;;;;;;;;;;;;;;;;4983055;28;19922;-57
2022/12/01 07:19:23;;;;;;;;;;;;;;;;;;4988951;28;19920;-57
2022/12/01 07:21:48;;;;;;;;;;;;;;;;;;4982074;28;19972;-56
2022/12/01 07:24:13;;;;;;;;;;;;;;;;;;4975713;28;19929;-56
2022/12/01 07:26:40;;;;;;;;;;;;;;;;;;4982959;28;19970;-57
2022/12/01 07:29:05;;;;;;;;;;;;;;;;;;4980284;28;19929;-56
2022/12/01 07:31:30;;;;;;;;;;;;;;;;;;4986093;28;19918;-56
2022/12/01 07:33:55;;;;;;;;;;;;;;;;;;4981450;28;19918;-57
2022/12/01 07:36:21;;;;;;;;;;;;;;;;;;4977899;28;20009;-56
2022/12/01 07:38:46;;;;;;;;;;;;;;;;;;4979555;28;20276;-56
2022/12/01 07:41:13;;;;;;;;;;;;;;;;;;4984742;28;20518;-57
2022/12/01 07:43:38;;;;;;;;;;;;;;;;;;4981828;28;19925;-56
2022/12/01 07:46:08;;;;;;;;;;;;;;;;;;4983851;28;19922;-56
2022/12/01 07:48:34;;;;;;;;;;;;;;;;;;4980572;28;19992;-57
2022/12/01 07:51:00;;;;;;;;;;;;;;;;;;4982344;28;19918;-57
2022/12/01 07:53:25;;;;;;;;;;;;;;;;;;4981817;28;19918;-57
2022/12/01 07:55:51;;;;;;;;;;;;;;;;;;4979538;28;20295;-56
2022/12/01 07:58:16;;;;;;;;;;;;;;;;;;4987747;28;19918;-57
2022/12/01 08:00:41;;;;;;;;;;;;;;;;;;4979674;28;19925;-56
2022/12/01 08:03:06;;;;;;;;;;;;;;;;;;4977395;28;20298;-56
2022/12/01 08:05:32;;;;;;;;;;;;;;;;;;4976247;28;19945;-56
2022/12/01 08:07:57;;;;;;;;;;;;;;;;;;4987641;28;19967;-55
2022/12/01 08:10:23;;;;;;;;;;;;;;;;;;4983407;28;19972;-57
2022/12/01 08:12:48;;;;;;;;;;;;;;;;;;4985503;28;19937;-56
2022/12/01 08:15:13;;;;;;;;;;;;;;;;;;4983974;28;20023;-58
2022/12/01 08:17:39;;;;;;;;;;;;;;;;;;4980998;28;19922;-57
2022/12/01 08:20:04;;;;;;;;;;;;;;;;;;4978921;28;20506;-57
2022/12/01 08:22:30;;;;;;;;;;;;;;;;;;4985682;28;19918;-55
2022/12/01 08:24:55;;;;;;;;;;;;;;;;;;4983449;28;19988;-55
2022/12/01 08:27:20;;;;;;;;;;;;;;;;;;4982966;28;19929;-57
2022/12/01 08:29:45;;;;;;;;;;;;;;;;;;4983437;28;19924;-56
2022/12/01 08:32:11;;;;;;;;;;;;;;;;;;4986509;28;20306;-57
2022/12/01 08:34:37;;;;;;;;;;;;;;;;;;4987433;28;19924;-57
2022/12/01 08:37:02;;;;;;;;;;;;;;;;;;4986081;28;19925;-57
2022/12/01 08:39:28;;;;;;;;;;;;;;;;;;4986669;28;19921;-57
2022/12/01 08:41:53;;;;;;;;;;;;;;;;;;4999193;28;19964;-57
2022/12/01 08:44:18;;;;;;;;;;;;;;;;;;4983179;28;19918;-56
2022/12/01 08:46:44;;;;;;;;;;;;;;;;;;4982731;28;19926;-55
2022/12/01 08:49:09;;;;;;;;;;;;;;;;;;4982409;28;19918;-54
2022/12/01 08:51:35;;;;;;;;;;;;;;;;;;4983490;28;19969;-56
2022/12/01 08:54:00;;;;;;;;;;;;;;;;;;4983829;28;20349;-56
2022/12/01 08:56:27;;;;;;;;;;;;;;;;;;4981148;28;19960;-55
2022/12/01 08:58:53;;;;;;;;;;;;;;;;;;4981675;28;19977;-56
2022/12/01 09:01:19;;;;;;;;;;;;;;;;;;4985309;28;19953;-56
2022/12/01 09:03:44;;;;;;;;;;;;;;;;;;4979226;28;19926;-56
2022/12/01 09:06:14;;;;;;;;;;;;;;;;;;4984175;28;19917;-56
2022/12/01 09:08:40;;;;;;;;;;;;;;;;;;4981710;28;19973;-56
2022/12/01 09:11:15;;;;;;;;;;;;;;;;;;4980638;28;20004;-56
2022/12/01 09:13:41;;;;;;;;;;;;;;;;;;4997270;28;19921;-56
2022/12/01 09:16:09;;;;;;;;;;;;;;;;;;4982511;28;19933;-55
2022/12/01 09:18:34;;;;;;;;;;;;;;;;;;4983908;28;19928;-56
2022/12/01 09:21:08;;;;;;;;;;;;;;;;;;4983809;28;20008;-56
2022/12/01 09:23:33;;;;;;;;;;;;;;;;;;4986606;28;20017;-56
2022/12/01 09:25:59;;;;;;;;;;;;;;;;;;4981125;28;20004;-56
2022/12/01 09:28:24;;;;;;;;;;;;;;;;;;4978193;28;19988;-56
2022/12/01 09:30:49;;;;;;;;;;;;;;;;;;4982421;28;19921;-56
2022/12/01 09:33:15;;;;;;;;;;;;;;;;;;4979947;28;19921;-57
2022/12/01 09:35:40;;;;;;;;;;;;;;;;;;4983521;28;19922;-56
2022/12/01 09:38:05;;;;;;;;;;;;;;;;;;4983825;28;20024;-56
2022/12/01 09:40:33;;;;;;;;;;;;;;;;;;4985296;28;20376;-57
2022/12/01 09:42:59;;;;;;;;;;;;;;;;;;4989677;28;20055;-56
2022/12/01 09:45:27;;;;;;;;;;;;;;;;;;4981058;28;19965;-56
2022/12/01 09:47:54;;;;;;;;;;;;;;;;;;4979546;28;19922;-57
2022/12/01 09:50:24;;;;;;;;;;;;;;;;;;4979277;28;19945;-57
2022/12/01 09:52:50;;;;;;;;;;;;;;;;;;4982859;28;19918;-57
2022/12/01 09:55:17;;;;;;;;;;;;;;;;;;4981362;28;19965;-57
2022/12/01 09:57:45;;;;;;;;;;;;;;;;;;4985615;28;20339;-57
2022/12/01 10:00:24;;;;;;;;;;;;;;;;;;4984089;28;19973;-57
2022/12/01 10:02:55;;;;;;;;;;;;;;;;;;4980738;28;19933;-55
2022/12/01 10:05:22;;;;;;;;;;;;;;;;;;4976975;28;20124;-57
2022/12/01 10:07:55;;;;;;;;;;;;;;;;;;4980590;28;20054;-56
2022/12/01 10:10:38;;;;;;;;;;;;;;;;;;4980991;28;19918;-56
2022/12/01 10:13:21;;;;;;;;;;;;;;;;;;4979929;28;20441;-54
2022/12/01 10:15:52;;;;;;;;;;;;;;;;;;4979923;28;20632;-55
2022/12/01 10:18:17;;;;;;;;;;;;;;;;;;4980362;28;20410;-56
2022/12/01 10:20:46;;;;;;;;;;;;;;;;;;4979997;28;19918;-56
2022/12/01 10:23:21;;;;;;;;;;;;;;;;;;4978027;28;20311;-57
2022/12/01 10:25:55;;;;;;;;;;;;;;;;;;4981027;28;19924;-55
2022/12/01 10:28:27;;;;;;;;;;;;;;;;;;4985755;28;19933;-57
2022/12/01 10:30:56;;;;;;;;;;;;;;;;;;4985335;28;20063;-57
2022/12/01 10:33:23;;;;;;;;;;;;;;;;;;4980934;28;19980;-57
2022/12/01 10:35:49;;;;;;;;;;;;;;;;;;4981114;28;20004;-57
2022/12/01 10:38:20;;;;;;;;;;;;;;;;;;4979689;28;19925;-57
2022/12/01 10:40:46;;;;;;;;;;;;;;;;;;4976914;28;20354;-56
2022/12/01 10:43:11;;;;;;;;;;;;;;;;;;4981118;28;19918;-57
2022/12/01 10:45:39;;;;;;;;;;;;;;;;;;4978952;28;20000;-57
2022/12/01 10:48:07;;;;;;;;;;;;;;;;;;4978057;28;19926;-57
2022/12/01 10:50:33;;;;;;;;;;;;;;;;;;4982799;28;20579;-57
2022/12/01 10:52:59;;;;;;;;;;;;;;;;;;4982204;28;19948;-57
2022/12/01 10:55:26;;;;;;;;;;;;;;;;;;4998769;28;19929;-57
2022/12/01 10:57:53;;;;;;;;;;;;;;;;;;4984832;28;20451;-56
2022/12/01 11:00:24;;;;;;;;;;;;;;;;;;4981758;28;19940;-57
2022/12/01 11:02:50;;;;;;;;;;;;;;;;;;4979915;28;19926;-57
2022/12/01 11:05:21;;;;;;;;;;;;;;;;;;4985561;28;20362;-57
2022/12/01 11:07:46;;;;;;;;;;;;;;;;;;4985549;28;20392;-57
2022/12/01 11:10:18;;;;;;;;;;;;;;;;;;4987450;28;19918;-57
2022/12/01 11:12:45;;;;;;;;;;;;;;;;;;4982101;28;19926;-57
2022/12/01 11:15:19;;;;;;;;;;;;;;;;;;4994656;28;20451;-57
2022/12/01 11:17:44;;;;;;;;;;;;;;;;;;4984802;28;20002;-57
2022/12/01 11:20:27;;;;;;;;;;;;;;;;;;4981466;28;19980;-57
2022/12/01 11:23:14;;;;;;;;;;;;;;;;;;4983109;28;20034;-57
2022/12/01 11:25:39;;;;;;;;;;;;;;;;;;4982069;28;19965;-57
2022/12/01 11:28:04;;;;;;;;;;;;;;;;;;4981097;28;19964;-56
2022/12/01 11:30:31;;;;;;;;;;;;;;;;;;4983460;28;19921;-56
2022/12/01 11:33:03;;;;;;;;;;;;;;;;;;4986270;28;19941;-56
2022/12/01 11:35:33;;;;;;;;;;;;;;;;;;4983992;28;20273;-56
2022/12/01 11:38:00;;;;;;;;;;;;;;;;;;4983518;28;19917;-57
2022/12/01 11:40:37;;;;;;;;;;;;;;;;;;4982122;28;19953;-57
2022/12/01 11:43:04;;;;;;;;;;;;;;;;;;4983057;28;19918;-56
2022/12/01 11:45:31;;;;;;;;;;;;;;;;;;4979349;28;19926;-56
2022/12/01 11:48:16;;;;;;;;;;;;;;;;;;4984379;28;20517;-56
2022/12/01 11:50:42;;;;;;;;;;;;;;;;;;4982154;28;19968;-57
2022/12/01 11:53:27;;;;;;;;;;;;;;;;;;4983010;28;19968;-57
2022/12/01 11:55:54;;;;;;;;;;;;;;;;;;4981529;28;20582;-57
2022/12/01 11:58:19;;;;;;;;;;;;;;;;;;4980282;28;19944;-57
2022/12/01 12:00:46;;;;;;;;;;;;;;;;;;4980713;28;19921;-57
2022/12/01 12:03:30;;;;;;;;;;;;;;;;;;4985442;28;19925;-57
2022/12/01 12:06:16;;;;;;;;;;;;;;;;;;4981404;28;19917;-58
2022/12/01 12:08:51;;;;;;;;;;;;;;;;;;4982477;28;20343;-57
2022/12/01 12:11:18;;;;;;;;;;;;;;;;;;4980455;28;20379;-57
2022/12/01 12:13:47;;;;;;;;;;;;;;;;;;4983380;28;19922;-57
2022/12/01 12:16:18;;;;;;;;;;;;;;;;;;4987343;28;19918;-57
2022/12/01 12:18:49;;;;;;;;;;;;;;;;;;4987470;28;20291;-57
2022/12/01 12:21:17;;;;;;;;;;;;;;;;;;4983782;28;19921;-57
2022/12/01 12:23:52;;;;;;;;;;;;;;;;;;4985700;28;20000;-58
2022/12/01 12:26:17;;;;;;;;;;;;;;;;;;4977083;28;20302;-58
2022/12/01 12:28:58;;;;;;;;;;;;;;;;;;4988466;28;19921;-58
2022/12/01 12:31:23;;;;;;;;;;;;;;;;;;4985030;28;19918;-58
2022/12/01 12:33:58;;;;;;;;;;;;;;;;;;4986901;28;19952;-58
2022/12/01 12:36:35;;;;;;;;;;;;;;;;;;4984965;28;19957;-59
2022/12/01 12:39:20;;;;;;;;;;;;;;;;;;4986102;28;20005;-57
2022/12/01 12:41:56;;;;;;;;;;;;;;;;;;4989402;28;20561;-58
2022/12/01 12:44:24;;;;;;;;;;;;;;;;;;4983654;28;19926;-57
2022/12/01 12:46:58;;;;;;;;;;;;;;;;;;4981835;28;19926;-58
2022/12/01 12:49:30;;;;;;;;;;;;;;;;;;4981114;28;19925;-58
2022/12/01 12:52:01;;;;;;;;;;;;;;;;;;4984932;28;19922;-58
2022/12/01 12:54:32;;;;;;;;;;;;;;;;;;4983327;28;19918;-58
2022/12/01 12:57:01;;;;;;;;;;;;;;;;;;4981721;28;19926;-58
2022/12/01 12:59:43;;;;;;;;;;;;;;;;;;4985467;28;19969;-58
2022/12/01 13:02:14;;;;;;;;;;;;;;;;;;4985563;28;19957;-58
2022/12/01 13:04:59;;;;;;;;;;;;;;;;;;4985024;28;19918;-58
2022/12/01 13:07:28;;;;;;;;;;;;;;;;;;4980904;28;20427;-57
2022/12/01 13:09:56;;;;;;;;;;;;;;;;;;4986613;28;19918;-57
2022/12/01 13:12:21;;;;;;;;;;;;;;;;;;4978531;28;20010;-59
2022/12/01 13:14:50;;;;;;;;;;;;;;;;;;4982779;28;20407;-58
2022/12/01 13:17:18;;;;;;;;;;;;;;;;;;4980243;28;19922;-58
2022/12/01 13:19:44;;;;;;;;;;;;;;;;;;4980049;28;19918;-57
2022/12/01 13:22:11;;;;;;;;;;;;;;;;;;4981945;28;19918;-58
2022/12/01 13:24:36;;;;;;;;;;;;;;;;;;4980949;28;19940;-58
2022/12/01 13:27:12;;;;;;;;;;;;;;;;;;4985641;28;20388;-58
2022/12/01 13:29:38;;;;;;;;;;;;;;;;;;4980190;28;19918;-58
2022/12/01 13:32:05;;;;;;;;;;;;;;;;;;4980465;28;20391;-58
2022/12/01 13:34:37;;;;;;;;;;;;;;;;;;4983669;28;19933;-58
2022/12/01 13:37:02;;;;;;;;;;;;;;;;;;4982771;28;19965;-58
2022/12/01 13:39:35;;;;;;;;;;;;;;;;;;4981061;28;19926;-58
2022/12/01 13:42:02;;;;;;;;;;;;;;;;;;4980709;28;19924;-58
2022/12/01 13:44:33;;;;;;;;;;;;;;;;;;4985112;28;19928;-58
2022/12/01 13:47:02;;;;;;;;;;;;;;;;;;4980687;28;19930;-58
2022/12/01 13:49:38;;;;;;;;;;;;;;;;;;4980284;28;20723;-58
2022/12/01 13:52:22;;;;;;;;;;;;;;;;;;4981662;28;20394;-58
2022/12/01 13:55:02;;;;;;;;;;;;;;;;;;4983452;28;19918;-58
2022/12/01 13:57:29;;;;;;;;;;;;;;;;;;4981116;28;21468;-58
2022/12/01 13:59:57;;;;;;;;;;;;;;;;;;4985546;28;19932;-58
2022/12/01 14:02:24;;;;;;;;;;;;;;;;;;4980613;28;19997;-57
2022/12/01 14:04:49;;;;;;;;;;;;;;;;;;4982446;28;20017;-57
2022/12/01 14:07:17;;;;;;;;;;;;;;;;;;4976207;28;20385;-58
2022/12/01 14:09:43;;;;;;;;;;;;;;;;;;4982308;28;19917;-57
2022/12/01 14:12:20;;;;;;;;;;;;;;;;;;4984665;28;19953;-58
2022/12/01 14:14:52;;;;;;;;;;;;;;;;;;4980229;28;20371;-57
2022/12/01 14:17:25;;;;;;;;;;;;;;;;;;4977172;28;19933;-58
2022/12/01 14:19:51;;;;;;;;;;;;;;;;;;4977402;28;19921;-58
2022/12/01 14:22:34;;;;;;;;;;;;;;;;;;4978290;28;19941;-58
2022/12/01 14:25:00;;;;;;;;;;;;;;;;;;4983062;28;20380;-58
2022/12/01 14:27:51;;;;;;;;;;;;;;;;;;4984755;28;19933;-58
2022/12/01 14:30:35;;;;;;;;;;;;;;;;;;4976494;28;19929;-58
2022/12/01 14:33:19;;;;;;;;;;;;;;;;;;4982328;28;20056;-58
2022/12/01 14:35:44;;;;;;;;;;;;;;;;;;4982027;28;19918;-58
2022/12/01 14:38:10;;;;;;;;;;;;;;;;;;4983201;28;20033;-58
2022/12/01 14:40:35;;;;;;;;;;;;;;;;;;4981417;28;19917;-57
2022/12/01 14:45:55;;;;;;;;;;;;;;;;;;4975782;28;19924;-58
2022/12/01 14:48:25;;;;;;;;;;;;;;;;;;4982003;28;20036;-57
2022/12/01 14:50:52;;;;;;;;;;;;;;;;;;4979724;28;19924;-58
2022/12/01 14:53:21;;;;;;;;;;;;;;;;;;4979502;28;20402;-58
2022/12/01 14:55:50;;;;;;;;;;;;;;;;;;4985506;28;19921;-58
2022/12/01 14:58:17;;;;;;;;;;;;;;;;;;4983786;28;19932;-57
2022/12/01 15:01:01;;;;;;;;;;;;;;;;;;4982487;28;19929;-58
2022/12/01 15:03:37;;;;;;;;;;;;;;;;;;4981391;28;19925;-57
2022/12/01 15:06:02;;;;;;;;;;;;;;;;;;4979593;28;19944;-58
2022/12/01 15:08:30;;;;;;;;;;;;;;;;;;4990767;28;19926;-58
2022/12/01 15:10:57;;;;;;;;;;;;;;;;;;4978465;28;19929;-58
2022/12/01 15:13:26;;;;;;;;;;;;;;;;;;4979598;28;19964;-58
2022/12/01 15:15:53;;;;;;;;;;;;;;;;;;4981863;28;19918;-58
2022/12/01 15:18:20;;;;;;;;;;;;;;;;;;4979860;28;19922;-58
2022/12/01 15:20:46;;;;;;;;;;;;;;;;;;4985840;28;19922;-58
2022/12/01 15:23:13;;;;;;;;;;;;;;;;;;4982839;28;19925;-58
2022/12/01 15:25:41;;;;;;;;;;;;;;;;;;4981013;28;19918;-58
2022/12/01 15:28:14;;;;;;;;;;;;;;;;;;4978169;28;19922;-58
2022/12/01 15:30:40;;;;;;;;;;;;;;;;;;4985147;28;20430;-59
2022/12/01 15:33:06;;;;;;;;;;;;;;;;;;4984326;28;19933;-57
2022/12/01 15:35:32;;;;;;;;;;;;;;;;;;4983434;28;19917;-57
2022/12/01 15:37:58;;;;;;;;;;;;;;;;;;4984024;28;19917;-57
2022/12/01 15:40:23;;;;;;;;;;;;;;;;;;4982111;28;19937;-58
2022/12/01 15:43:05;;;;;;;;;;;;;;;;;;4977082;28;19918;-58
2022/12/01 15:45:40;;;;;;;;;;;;;;;;;;4983347;28;20380;-57
2022/12/01 15:48:13;;;;;;;;;;;;;;;;;;4996128;28;20316;-57
2022/12/01 15:50:40;;;;;;;;;;;;;;;;;;4985410;28;20335;-56
2022/12/01 15:53:14;;;;;;;;;;;;;;;;;;4982275;28;19926;-58
2022/12/01 15:55:40;;;;;;;;;;;;;;;;;;4988152;28;19993;-58
2022/12/01 15:58:06;;;;;;;;;;;;;;;;;;4984096;28;19922;-57
2022/12/01 16:00:31;;;;;;;;;;;;;;;;;;4984348;28;20627;-57
2022/12/01 16:02:58;;;;;;;;;;;;;;;;;;4980756;28;19918;-57
2022/12/01 16:05:24;;;;;;;;;;;;;;;;;;4983840;28;19996;-58
2022/12/01 16:07:50;;;;;;;;;;;;;;;;;;4987084;28;19933;-58
2022/12/01 16:10:32;;;;;;;;;;;;;;;;;;4987324;28;19928;-57
2022/12/01 16:13:17;;;;;;;;;;;;;;;;;;4983158;28;19924;-56
2022/12/01 16:15:43;;;;;;;;;;;;;;;;;;4986008;28;19918;-57
2022/12/01 16:18:23;;;;;;;;;;;;;;;;;;4986203;28;19925;-57
2022/12/01 16:20:48;;;;;;;;;;;;;;;;;;4979314;28;20399;-57
2022/12/01 16:23:18;;;;;;;;;;;;;;;;;;4984575;28;19918;-56
2022/12/01 16:25:44;;;;;;;;;;;;;;;;;;4979022;28;19941;-57
2022/12/01 16:28:23;;;;;;;;;;;;;;;;;;4980293;28;19926;-56
2022/12/01 16:30:49;;;;;;;;;;;;;;;;;;4981566;28;19918;-56
2022/12/01 16:33:20;;;;;;;;;;;;;;;;;;4988534;28;19925;-57
2022/12/01 16:35:46;;;;;;;;;;;;;;;;;;4986639;28;19928;-57
2022/12/01 16:38:14;;;;;;;;;;;;;;;;;;4983453;28;19917;-57
2022/12/01 16:40:41;;;;;;;;;;;;;;;;;;4981753;28;19928;-58
2022/12/01 16:43:20;;;;;;;;;;;;;;;;;;4984905;28;19933;-57
2022/12/01 16:45:48;;;;;;;;;;;;;;;;;;4983065;28;19926;-57
2022/12/01 16:48:18;;;;;;;;;;;;;;;;;;4984995;28;19933;-57
2022/12/01 16:50:43;;;;;;;;;;;;;;;;;;4982859;28;20439;-57
2022/12/01 16:53:09;;;;;;;;;;;;;;;;;;4981827;28;20017;-57
2022/12/01 16:55:34;;;;;;;;;;;;;;;;;;4984203;28;19922;-56
2022/12/01 16:58:00;;;;;;;;;;;;;;;;;;4984485;28;19918;-57
2022/12/01 17:00:26;;;;;;;;;;;;;;;;;;4982212;28;20024;-58
2022/12/01 17:02:51;;;;;;;;;;;;;;;;;;4978742;28;20626;-58
2022/12/01 17:05:17;;;;;;;;;;;;;;;;;;4979276;28;19922;-57